Time;durP1;ratioP1;P1;durP2;ratioP2;P2;SDS_P1;SDS_P2;PMS_P1;PMS_P2;Temp;Humidity;BMP_temperature;BMP_pressure;BME280_temperature;BME280_humidity;BME280_pressure;Samples;Min_cycle;Max_cycle;Signal;HPM_P1;HPM_P2
2022/04/16 00:01:08;;;;;;;10.73;7.27;;;7.30;99.90;;;8.22;100.00;-20006.63;5036527;28;20304;-62
2022/04/16 00:03:36;;;;;;;11.33;6.80;;;7.40;99.90;;;8.11;100.00;-20002.88;5036651;28;20317;-62
2022/04/16 00:06:04;;;;;;;6.97;5.63;;;7.40;99.90;;;8.12;100.00;-20003.38;5037519;28;20243;-62
2022/04/16 00:08:32;;;;;;;9.23;6.00;;;7.40;99.90;;;8.03;100.00;-20000.31;5036717;28;20312;-62
2022/04/16 00:11:01;;;;;;;8.67;6.10;;;7.30;99.90;;;8.08;100.00;-20002.03;5036551;28;20233;-63
2022/04/16 00:13:32;;;;;;;6.10;5.40;;;7.30;99.90;;;8.23;100.00;-20006.97;5036673;28;20253;-62
2022/04/16 00:16:00;;;;;;;7.53;5.60;;;7.30;99.90;;;8.13;100.00;-20003.56;5035469;28;20596;-63
2022/04/16 00:18:28;;;;;;;6.43;5.53;;;7.40;99.90;;;7.93;100.00;-19996.72;5036375;28;20685;-62
2022/04/16 00:20:57;;;;;;;6.40;5.07;;;7.30;99.90;;;7.80;100.00;-19992.47;5037445;28;20201;-61
2022/04/16 00:23:26;;;;;;;6.83;5.60;;;7.20;99.90;;;8.07;100.00;-20001.69;5035567;28;20244;-62
2022/04/16 00:25:56;;;;;;;5.97;5.30;;;;;;;7.82;100.00;-19993.13;5036658;28;20226;-62
2022/04/16 00:28:26;;;;;;;5.27;4.60;;;7.10;99.90;;;7.93;100.00;-19996.91;5036425;28;20253;-62
2022/04/16 00:30:57;;;;;;;5.63;4.83;;;7.20;99.90;;;7.79;100.00;-19992.13;5036312;28;20236;-61
2022/04/16 00:33:26;;;;;;;6.33;5.23;;;7.20;99.90;;;7.71;100.00;-19989.38;5035307;28;20691;-62
2022/04/16 00:35:55;;;;;;;8.70;5.47;;;7.10;99.90;;;7.82;100.00;-19993.13;5037520;28;20221;-61
2022/04/16 00:38:23;;;;;;;6.27;5.20;;;7.10;99.90;;;7.78;100.00;-19991.59;5036435;28;20286;-61
2022/04/16 00:40:52;;;;;;;5.83;4.67;;;7.10;99.90;;;7.67;100.00;-19988.00;5033109;28;20322;-61
2022/04/16 00:43:25;;;;;;;7.47;5.47;;;7.00;99.90;;;7.67;100.00;-19987.84;5033608;28;20226;-61
2022/04/16 00:45:53;;;;;;;5.47;4.77;;;7.00;99.90;;;7.84;100.00;-19993.66;5032797;28;20309;-62
2022/04/16 00:48:24;;;;;;;6.57;4.97;;;7.00;99.90;;;7.77;100.00;-19991.44;5033149;28;20205;-63
2022/04/16 00:50:54;;;;;;;5.90;5.40;;;7.00;99.90;;;7.96;100.00;-19997.94;5032925;28;20277;-61
2022/04/16 00:53:25;;;;;;;5.67;4.40;;;7.10;99.90;;;7.82;100.00;-19992.97;5033139;28;20231;-61
2022/04/16 00:55:53;;;;;;;6.47;4.80;;;7.10;99.90;;;8.03;100.00;-20000.31;5032810;28;20317;-61
2022/04/16 00:58:21;;;;;;;5.87;5.10;;;7.20;99.90;;;8.06;100.00;-20001.34;5033152;28;20329;-61
2022/04/16 01:00:49;;;;;;;6.17;5.10;;;7.20;99.90;;;7.88;100.00;-19995.03;5032786;28;20229;-62
2022/04/16 01:03:17;;;;;;;6.67;5.20;;;7.20;99.90;;;7.91;100.00;-19996.03;5033069;28;20220;-61
2022/04/16 01:05:46;;;;;;;6.73;4.83;;;7.20;99.90;;;8.05;100.00;-20000.84;5032401;28;20620;-62
2022/04/16 01:08:18;;;;;;;6.10;5.27;;;7.20;99.90;;;7.84;100.00;-19993.81;5032782;28;20725;-62
2022/04/16 01:10:46;;;;;;;6.53;5.00;;;7.10;99.90;;;7.73;100.00;-19989.91;5032583;28;20236;-63
2022/04/16 01:13:18;;;;;;;6.40;5.33;;;7.10;99.90;;;7.74;100.00;-19990.22;5032661;28;20658;-61
2022/04/16 01:15:47;;;;;;;7.40;5.40;;;7.00;99.90;;;7.93;100.00;-19996.91;5031249;28;20217;-61
2022/04/16 01:18:17;;;;;;;5.70;5.10;;;7.10;99.90;;;7.76;100.00;-19991.09;5032619;28;20208;-62
2022/04/16 01:20:47;;;;;;;5.37;4.87;;;7.00;99.90;;;7.80;100.00;-19992.47;5033231;28;20228;-61
2022/04/16 01:23:16;;;;;;;5.73;4.20;;;7.00;99.90;;;7.74;100.00;-19990.22;5032626;28;20317;-62
2022/04/16 01:25:44;;;;;;;6.77;4.90;;;7.00;99.90;;;7.61;100.00;-19985.97;5032382;28;20592;-61
2022/04/16 01:28:12;;;;;;;4.90;4.50;;;7.00;99.90;;;7.83;100.00;-19993.31;5032516;28;20228;-62
2022/04/16 01:30:41;;;;;;;6.37;4.53;;;7.00;99.90;;;7.82;100.00;-19992.97;5032464;28;20230;-62
2022/04/16 01:33:10;;;;;;;5.03;4.07;;;7.10;99.90;;;7.57;100.00;-19984.59;5032051;28;20292;-62
2022/04/16 01:35:38;;;;;;;4.97;3.83;;;6.90;99.90;;;7.49;100.00;-19981.69;5032684;28;20231;-62
2022/04/16 01:38:07;;;;;;;5.40;4.03;;;6.90;99.90;;;7.38;100.00;-19978.09;5025568;28;20229;-63
2022/04/16 01:40:38;;;;;;;5.00;3.60;;;6.70;99.90;;;7.19;100.00;-19971.59;5012253;28;20233;-61
2022/04/16 01:43:07;;;;;;;4.00;3.57;;;6.60;99.90;;;7.08;100.00;-19968.03;5012557;28;20263;-62
2022/04/16 01:45:35;;;;;;;4.67;3.50;;;6.50;99.90;;;7.08;100.00;-19968.03;5012175;28;20777;-62
2022/04/16 01:48:03;;;;;;;7.80;4.20;;;6.40;99.90;;;7.08;100.00;-19968.03;5025831;28;20722;-62
2022/04/16 01:50:31;;;;;;;5.20;3.43;;;6.40;99.90;;;7.16;100.00;-19970.75;5012193;28;20313;-62
2022/04/16 01:52:59;;;;;;;5.53;4.10;;;6.40;99.90;;;6.96;100.00;-19963.91;5012204;28;20228;-62
2022/04/16 01:55:28;;;;;;;3.70;3.40;;;6.40;99.90;;;6.99;100.00;-19964.94;5023678;28;20255;-61
2022/04/16 01:57:58;;;;;;;4.43;3.67;;;6.40;99.90;;;6.84;100.00;-19959.66;5031817;28;20253;-60
2022/04/16 02:00:26;;;;;;;5.47;3.40;;;6.30;99.90;;;6.63;100.00;-19952.63;5031243;28;20204;-62
2022/04/16 02:02:54;;;;;;;3.83;3.40;;;6.20;99.90;;;6.58;100.00;-19950.75;5032073;28;20243;-61
2022/04/16 02:05:22;;;;;;;4.37;3.40;;;6.10;99.90;;;6.61;100.00;-19951.97;5031685;28;20312;-61
2022/04/16 02:07:51;;;;;;;5.67;3.70;;;6.00;99.90;;;6.42;100.00;-19945.47;5031816;28;20228;-62
2022/04/16 02:10:20;;;;;;;3.60;3.27;;;;;;;6.29;100.00;-19940.84;5031575;28;20283;-61
2022/04/16 02:12:48;;;;;;;3.30;3.00;;;5.80;99.90;;;6.07;100.00;-19933.50;5030497;28;20231;-61
2022/04/16 02:15:18;;;;;;;3.37;3.03;;;5.60;99.90;;;6.06;100.00;-19933.34;5031318;28;20701;-62
2022/04/16 02:17:46;;;;;;;3.67;3.20;;;5.50;99.90;;;6.11;100.00;-19935.03;5031715;28;20324;-63
2022/04/16 02:20:14;;;;;;;4.07;3.60;;;5.50;99.90;;;6.04;100.00;-19932.47;5031333;28;20229;-62
2022/04/16 02:22:44;;;;;;;4.37;3.20;;;5.40;99.90;;;5.79;100.00;-19924.09;5031322;28;20259;-61
2022/04/16 02:25:14;;;;;;;4.47;3.10;;;5.30;99.90;;;5.70;100.00;-19921.03;5031378;28;20312;-62
2022/04/16 02:27:42;;;;;;;5.97;3.60;;;5.20;99.90;;;5.70;100.00;-19921.03;5031429;28;20246;-62
2022/04/16 02:30:14;;;;;;;3.67;2.93;;;5.10;99.90;;;6.18;100.00;-19937.44;5030933;28;20303;-62
2022/04/16 02:32:45;;;;;;;3.90;3.30;;;5.30;99.90;;;6.15;100.00;-19936.25;5031566;28;20281;-61
2022/04/16 02:35:16;;;;;;;3.63;3.10;;;5.30;99.90;;;6.10;100.00;-19934.53;5031395;28;20234;-64
2022/04/16 02:37:46;;;;;;;4.07;3.00;;;5.30;99.90;;;5.97;100.00;-19930.25;5030185;28;20259;-61
2022/04/16 02:40:15;;;;;;;4.13;3.30;;;5.20;99.90;;;5.70;100.00;-19921.03;5031081;28;20795;-60
2022/04/16 02:42:46;;;;;;;4.70;3.07;;;5.00;99.90;;;5.48;100.00;-19913.50;5030875;28;20231;-61
2022/04/16 02:48:04;;;;;;;4.00;3.03;;;4.80;99.90;;;5.25;100.00;-19905.47;5011541;28;20186;-62
2022/04/16 02:50:32;;;;;;;4.73;3.40;;;4.70;99.90;;;5.04;100.00;-19898.47;5011272;28;20903;-61
2022/04/16 02:53:02;;;;;;;4.80;3.20;;;4.60;99.90;;;4.92;100.00;-19894.53;5016129;28;20226;-61
2022/04/16 02:55:30;;;;;;;4.33;2.83;;;4.50;99.90;;;4.69;100.00;-19886.66;5031036;28;20301;-61
2022/04/16 02:57:58;;;;;;;6.57;3.30;;;4.30;99.90;;;4.76;100.00;-19889.06;5030535;28;20358;-62
2022/04/16 03:00:26;;;;;;;3.53;3.07;;;4.20;99.90;;;5.12;100.00;-19901.19;5031017;28;20208;-61
2022/04/16 03:02:54;;;;;;;6.13;3.63;;;4.30;99.90;;;4.96;100.00;-19895.91;5030848;28;20207;-61
2022/04/16 03:05:24;;;;;;;4.00;3.03;;;4.30;99.90;;;5.00;100.00;-19897.09;5030599;28;20249;-61
2022/04/16 03:07:52;;;;;;;4.70;3.00;;;4.30;99.90;;;4.81;100.00;-19890.59;5030651;28;20226;-61
2022/04/16 03:10:20;;;;;;;4.10;2.83;;;4.20;99.90;;;5.04;100.00;-19898.47;5030457;28;20279;-61
2022/04/16 03:12:51;;;;;;;3.90;2.73;;;4.30;99.90;;;5.33;100.00;-19908.19;5029596;28;20230;-63
2022/04/16 03:18:09;;;;;;;5.07;2.60;;;4.40;99.90;;;5.28;100.00;-19906.66;5030088;28;20574;-61
2022/04/16 03:20:39;;;;;;;3.60;2.77;;;4.50;99.90;;;5.35;100.00;-19908.88;5031295;28;20229;-61
2022/04/16 03:23:09;;;;;;;4.47;2.97;;;4.50;99.90;;;5.48;100.00;-19913.50;5030495;28;20643;-62
2022/04/16 03:25:41;;;;;;;5.07;2.90;;;4.60;99.90;;;5.31;100.00;-19907.69;5024639;28;20303;-62
2022/04/16 03:28:09;;;;;;;5.63;2.93;;;4.60;99.90;;;5.13;100.00;-19901.53;5010559;28;20312;-62
2022/04/16 03:30:38;;;;;;;2.50;2.30;;;4.60;99.90;;;5.14;100.00;-19901.72;5011123;28;20490;-62
2022/04/16 03:33:06;;;;;;;5.53;2.60;;;4.40;99.90;;;5.09;100.00;-19900.00;5011019;28;20681;-62
2022/04/16 03:35:35;;;;;;;4.20;2.80;;;4.30;99.90;;;4.77;100.00;-19889.22;5010956;28;20224;-62
2022/04/16 03:38:05;;;;;;;4.87;2.83;;;4.20;99.90;;;4.65;100.00;-19885.13;5028882;28;20230;-61
2022/04/16 03:40:33;;;;;;;4.80;2.60;;;4.10;99.90;;;4.48;100.00;-19879.31;5030500;28;20314;-60
2022/04/16 03:43:03;;;;;;;4.50;2.87;;;3.90;99.90;;;4.67;100.00;-19885.81;5030012;28;20298;-61
2022/04/16 03:45:33;;;;;;;3.37;2.87;;;3.90;99.90;;;4.67;100.00;-19885.81;5030333;28;20250;-61
2022/04/16 03:48:04;;;;;;;4.00;2.80;;;3.90;99.90;;;4.44;100.00;-19878.13;5021762;28;20205;-61
2022/04/16 03:50:34;;;;;;;3.23;2.57;;;3.80;99.90;;;4.53;100.00;-19881.03;5010528;28;20265;-61
2022/04/16 03:53:04;;;;;;;2.90;2.67;;;3.80;99.90;;;4.56;100.00;-19882.22;5010417;28;20602;-60
2022/04/16 04:01:08;;;;;;;4.03;3.30;;;3.90;99.90;;;4.58;100.00;-19882.75;5027311;28;20662;-63
2022/04/16 04:03:36;;;;;;;3.27;2.97;;;3.80;99.90;;;4.57;100.00;-19882.56;5029921;28;20667;-62
2022/04/16 04:06:04;;;;;;;5.50;3.63;;;3.80;99.90;;;4.65;100.00;-19885.13;5030959;28;20253;-61
2022/04/16 04:08:34;;;;;;;4.50;3.20;;;3.80;99.90;;;4.70;100.00;-19886.84;5028994;28;20233;-62
2022/04/16 04:11:03;;;;;;;4.77;3.20;;;3.90;99.90;;;4.84;100.00;-19891.63;5030086;28;20226;-62
2022/04/16 04:13:31;;;;;;;3.83;2.80;;;4.00;99.90;;;4.83;100.00;-19891.44;5028751;28;20262;-63
2022/04/16 04:15:59;;;;;;;5.17;2.60;;;4.00;99.90;;;4.97;100.00;-19896.06;5031727;28;20238;-61
2022/04/16 04:18:28;;;;;;;3.23;2.60;;;4.00;99.90;;;5.06;100.00;-19898.97;5032368;28;20711;-61
2022/04/16 04:20:56;;;;;;;4.90;2.83;;;4.10;99.90;;;5.07;100.00;-19899.50;5034500;28;20200;-62
2022/04/16 04:23:25;;;;;;;3.60;2.90;;;4.20;99.90;;;5.25;100.00;-19905.63;5033592;28;20226;-62
2022/04/16 04:25:54;;;;;;;2.77;2.40;;;4.30;99.90;;;5.08;100.00;-19899.66;5033672;28;20741;-62
2022/04/16 04:28:22;;;;;;;3.73;2.77;;;4.20;99.90;;;5.04;100.00;-19898.28;5033189;28;20305;-61
2022/04/16 04:30:50;;;;;;;4.77;2.90;;;4.30;99.90;;;5.31;100.00;-19907.53;5032880;28;20345;-62
2022/04/16 04:33:18;;;;;;;5.20;2.97;;;4.40;99.90;;;5.25;100.00;-19905.63;5033557;28;20207;-61
2022/04/16 04:35:46;;;;;;;4.57;3.00;;;4.40;99.90;;;5.30;100.00;-19907.19;5033408;28;20229;-62
2022/04/16 04:38:14;;;;;;;4.03;2.63;;;4.40;99.90;;;4.95;100.00;-19895.38;5033341;28;20254;-63
2022/04/16 04:40:42;;;;;;;3.43;2.60;;;4.30;99.90;;;5.11;100.00;-19900.84;5033649;28;20357;-62
2022/04/16 04:43:12;;;;;;;5.20;2.63;;;4.30;99.90;;;5.02;100.00;-19897.59;5032120;28;20224;-61
2022/04/16 04:45:40;;;;;;;3.87;2.93;;;4.30;99.90;;;5.43;100.00;-19911.78;5033628;28;20233;-61
2022/04/16 04:48:09;;;;;;;5.23;2.33;;;4.40;99.90;;;5.29;100.00;-19906.84;5026459;28;20203;-62
2022/04/16 04:50:37;;;;;;;3.70;2.90;;;4.40;99.90;;;5.48;100.00;-19913.34;5013831;28;20593;-61
2022/04/16 04:53:05;;;;;;;3.20;2.90;;;4.50;99.90;;;5.32;100.00;-19908.03;5015405;28;20242;-62
2022/04/16 04:55:33;;;;;;;3.57;2.60;;;4.50;99.90;;;5.36;100.00;-19909.22;5033120;28;20339;-62
2022/04/16 04:58:01;;;;;;;3.47;2.60;;;4.50;99.90;;;5.24;100.00;-19905.31;5032717;28;20307;-61
2022/04/16 05:00:30;;;;;;;3.83;3.00;;;4.40;99.90;;;5.31;100.00;-19907.53;5032133;28;20242;-62
2022/04/16 05:02:58;;;;;;;5.50;2.73;;;4.40;99.90;;;5.30;100.00;-19907.19;5033503;28;20633;-61
2022/04/16 05:05:26;;;;;;;3.93;3.40;;;4.40;99.90;;;5.38;100.00;-19909.91;5032804;28;20255;-62
2022/04/16 05:07:54;;;;;;;3.00;2.70;;;4.50;99.90;;;5.59;100.00;-19917.09;5032334;28;20234;-61
2022/04/16 05:10:22;;;;;;;3.70;2.90;;;4.60;99.90;;;5.44;100.00;-19912.13;5032565;28;20258;-61
2022/04/16 05:12:50;;;;;;;3.20;2.90;;;4.60;99.90;;;5.49;100.00;-19913.66;5032400;28;20253;-62
2022/04/16 05:15:18;;;;;;;4.30;3.07;;;4.50;99.90;;;5.43;100.00;-19911.63;5031896;28;20555;-62
2022/04/16 05:17:49;;;;;;;4.53;2.80;;;4.50;99.90;;;5.51;100.00;-19914.34;5033235;28;20303;-63
2022/04/16 05:20:17;;;;;;;6.17;3.10;;;4.50;99.90;;;5.25;100.00;-19905.47;5031531;28;20692;-62
2022/04/16 05:22:45;;;;;;;3.60;2.80;;;4.40;99.90;;;5.52;100.00;-19914.69;5032598;28;20759;-63
2022/04/16 05:25:13;;;;;;;2.87;2.40;;;4.50;99.90;;;5.57;100.00;-19916.41;5032526;28;20223;-63
2022/04/16 05:27:41;;;;;;;3.73;2.80;;;4.60;99.90;;;5.49;100.00;-19913.84;5031992;28;20335;-63
2022/04/16 05:30:22;;;;;;;4.03;2.43;;;4.60;99.90;;;5.65;100.00;-19919.31;5033100;28;20229;-61
2022/04/16 05:32:51;;;;;;;4.37;2.80;;;4.60;99.90;;;5.67;100.00;-19920.00;5031838;28;20214;-63
2022/04/16 05:35:19;;;;;;;3.70;2.70;;;4.70;99.90;;;5.96;100.00;-19929.75;5032348;28;20749;-62
2022/04/16 05:37:48;;;;;;;5.20;2.90;;;4.90;99.90;;;5.91;99.99;-19928.03;5032195;28;20607;-62
2022/04/16 05:40:16;;;;;;;3.20;2.90;;;4.90;99.90;;;5.63;100.00;-19918.47;5031936;28;20719;-61
2022/04/16 05:42:45;;;;;;;3.23;2.77;;;4.80;99.90;;;5.70;100.00;-19921.03;5030940;28;20290;-63
2022/04/16 05:45:14;;;;;;;4.70;2.80;;;4.80;99.90;;;5.58;100.00;-19916.75;5032375;28;20213;-63
2022/04/16 05:47:44;;;;;;;3.20;2.90;;;4.70;99.90;;;5.77;100.00;-19923.41;5031111;28;20223;-62
2022/04/16 05:50:14;;;;;;;3.20;2.90;;;4.80;99.90;;;6.00;100.00;-19931.13;5031878;28;20247;-61
2022/04/16 05:52:42;;;;;;;3.33;2.67;;;4.90;99.90;;;5.97;99.30;-19930.09;5031195;28;20282;-63
2022/04/16 05:55:11;;;;;;;3.47;2.73;;;5.00;99.90;;;5.91;100.00;-19928.03;5031633;28;20224;-62
2022/04/16 05:57:40;;;;;;;4.43;3.00;;;4.90;99.90;;;5.81;100.00;-19924.59;5031968;28;20226;-63
2022/04/16 06:00:12;;;;;;;3.33;2.83;;;4.90;99.90;;;5.97;100.00;-19930.09;5032366;28;20277;-62
2022/04/16 06:02:42;;;;;;;3.20;2.90;;;5.00;99.90;;;5.80;100.00;-19924.28;5032247;28;20269;-62
2022/04/16 06:05:10;;;;;;;4.73;3.00;;;4.90;99.90;;;5.81;100.00;-19924.59;5031610;28;20665;-63
2022/04/16 06:07:40;;;;;;;3.20;2.47;;;4.90;99.90;;;5.76;100.00;-19922.91;5030689;28;20617;-63
2022/04/16 06:10:09;;;;;;;3.43;2.93;;;4.80;99.90;;;5.61;100.00;-19917.78;5031488;28;20227;-62
2022/04/16 06:12:37;;;;;;;4.27;2.87;;;4.70;99.90;;;5.54;100.00;-19915.38;5030618;28;20231;-63
2022/04/16 06:15:06;;;;;;;4.30;3.33;;;4.70;99.90;;;5.71;100.00;-19921.19;5032358;28;20218;-63
2022/04/16 06:17:34;;;;;;;3.83;3.23;;;4.70;99.90;;;5.84;100.00;-19925.63;5023060;28;20594;-64
2022/04/16 06:20:03;;;;;;;3.47;3.17;;;4.80;99.90;;;5.81;100.00;-19924.78;5011817;28;20267;-61
2022/04/16 06:22:32;;;;;;;3.40;3.07;;;4.70;99.90;;;5.90;98.04;-19927.69;5016708;28;20220;-61
2022/04/16 06:25:01;;;;;;;3.30;3.00;;;4.90;99.90;;;5.98;97.20;-19930.44;5031304;28;20647;-63
2022/04/16 06:27:35;;;;;;;4.40;3.20;;;4.80;99.90;;;6.06;96.59;-19933.16;5030872;28;20227;-62
2022/04/16 06:30:03;;;;;;;3.27;2.90;;;4.90;99.90;;;6.19;95.65;-19937.59;5030282;28;20211;-62
2022/04/16 06:32:31;;;;;;;3.90;3.30;;;5.00;99.90;;;6.28;94.12;-19940.69;5029960;28;20322;-61
2022/04/16 06:34:59;;;;;;;3.00;2.70;;;5.10;99.90;;;6.48;92.94;-19947.34;5028710;28;20228;-62
2022/04/16 06:37:27;;;;;;;3.43;3.00;;;5.30;99.90;;;6.61;92.59;-19951.97;5030880;28;20235;-62
2022/04/16 06:39:55;;;;;;;4.03;2.90;;;5.40;99.90;;;6.87;89.24;-19960.84;5026151;28;20257;-62
2022/04/16 06:42:24;;;;;;;3.10;2.67;;;5.60;99.90;;;6.85;90.03;-19960.16;5011098;28;20211;-63
2022/04/16 06:44:52;;;;;;;3.03;2.40;;;5.70;99.90;;;6.66;88.72;-19953.50;5026885;28;20303;-62
2022/04/16 06:47:20;;;;;;;3.23;3.03;;;5.60;99.90;;;6.55;89.67;-19949.91;5020065;28;20225;-64
2022/04/16 06:49:48;;;;;;;3.23;2.70;;;5.50;99.90;;;6.47;89.36;-19947.19;5029859;28;20228;-62
2022/04/16 06:52:18;;;;;;;5.43;2.93;;;5.40;99.90;;;6.45;90.07;-19946.31;5023048;28;20316;-62
2022/04/16 06:54:47;;;;;;;3.20;2.53;;;5.40;99.90;;;6.78;87.55;-19957.59;5011130;28;20312;-63
2022/04/16 06:57:15;;;;;;;2.70;2.40;;;5.50;99.90;;;6.87;87.17;-19960.84;5013455;28;20213;-63
2022/04/16 06:59:44;;;;;;;5.63;3.00;;;5.60;99.90;;;6.76;88.33;-19956.91;5011823;28;20344;-63
2022/04/16 07:02:12;;;;;;;4.20;2.60;;;5.60;99.90;;;6.91;88.98;-19962.22;5011006;28;20275;-63
2022/04/16 07:04:41;;;;;;;2.53;2.27;;;5.60;99.90;;;6.98;87.87;-19964.44;5028907;28;20232;-61
2022/04/16 07:07:09;;;;;;;3.47;2.40;;;5.70;99.90;;;7.00;87.22;-19965.28;5019917;28;20312;-62
2022/04/16 07:09:39;;;;;;;2.87;2.57;;;5.70;99.90;;;7.18;86.73;-19971.44;5011192;28;20320;-62
2022/04/16 07:12:09;;;;;;;2.73;2.53;;;5.80;99.90;;;7.13;84.68;-19969.72;5011445;28;20214;-62
2022/04/16 07:14:38;;;;;;;2.50;2.30;;;6.00;99.90;;;7.14;86.36;-19969.91;5015274;28;20339;-62
2022/04/16 07:17:08;;;;;;;4.23;2.70;;;6.00;99.90;;;6.92;86.63;-19962.56;5030557;28;20234;-62
2022/04/16 07:19:37;;;;;;;2.60;2.40;;;5.90;99.90;;;6.98;86.92;-19964.59;5030469;28;20620;-61
2022/04/16 07:22:06;;;;;;;2.80;2.60;;;5.90;99.90;;;6.99;87.11;-19964.94;5029614;28;20257;-67
2022/04/16 07:24:37;;;;;;;4.13;2.30;;;5.80;99.90;;;7.14;84.89;-19970.06;5029983;28;20327;-63
2022/04/16 07:27:06;;;;;;;3.80;2.97;;;5.90;99.90;;;7.08;84.00;-19967.84;5031082;28;20200;-62
2022/04/16 07:29:34;;;;;;;2.73;2.50;;;6.00;99.90;;;7.31;83.81;-19975.88;5031086;28;20229;-63
2022/04/16 07:32:02;;;;;;;3.17;2.53;;;6.00;99.90;;;7.30;84.25;-19975.38;5030700;28;20316;-62
2022/04/16 07:34:32;;;;;;;2.60;2.40;;;6.10;99.90;;;7.02;85.14;-19965.78;5030345;28;20739;-62
2022/04/16 07:37:00;;;;;;;2.83;2.60;;;6.10;99.90;;;7.20;86.10;-19972.13;5030570;28;20636;-64
2022/04/16 07:39:29;;;;;;;2.70;2.50;;;6.20;99.90;;;7.60;83.96;-19985.44;5030709;28;20305;-63
2022/04/16 07:41:57;;;;;;;3.73;3.37;;;6.30;99.90;;;7.61;83.18;-19985.78;5031044;28;20547;-62
2022/04/16 07:44:25;;;;;;;3.20;2.73;;;6.40;99.90;;;7.68;82.66;-19988.19;5030714;28;20236;-62
2022/04/16 07:46:53;;;;;;;3.00;2.70;;;6.50;99.90;;;7.45;83.67;-19980.50;5028119;28;20226;-62
2022/04/16 07:49:21;;;;;;;4.53;3.00;;;6.50;99.90;;;7.65;84.75;-19987.34;5027033;28;20309;-63
2022/04/16 07:51:51;;;;;;;3.17;2.87;;;6.40;99.90;;;8.20;81.63;-20005.97;5034647;28;20316;-63
2022/04/16 07:54:19;;;;;;;3.17;2.87;;;6.70;99.90;;;8.66;80.16;-20021.69;5034787;28;20278;-62
2022/04/16 07:56:47;;;;;;;3.00;2.70;;;7.00;99.90;;;8.86;75.99;-20028.50;5035302;28;20202;-62
2022/04/16 07:59:15;;;;;;;3.37;2.80;;;7.20;99.90;;;9.20;74.13;-20039.97;5034193;28;20650;-63
2022/04/16 08:01:43;;;;;;;3.47;2.80;;;7.60;99.90;;;8.94;74.59;-20031.25;5034124;28;20240;-62
2022/04/16 08:04:11;;;;;;;3.27;2.63;;;7.60;99.90;;;9.49;74.50;-20050.03;5034298;28;20264;-64
2022/04/16 08:06:39;;;;;;;2.77;2.47;;;7.80;99.90;;;10.22;71.67;-20074.81;5034667;28;20245;-62
2022/04/16 08:09:09;;;;;;;2.43;2.17;;;8.40;99.90;;;10.29;65.45;-20077.03;5034761;28;20198;-63
2022/04/16 08:11:37;;;;;;;2.87;2.30;;;8.60;99.90;;;10.36;63.62;-20079.41;5034335;28;20275;-62
2022/04/16 08:14:05;;;;;;;2.67;2.23;;;8.80;99.90;;;10.10;64.30;-20070.72;5034287;28;20233;-61
2022/04/16 08:16:33;;;;;;;2.20;1.97;;;8.50;99.90;;;10.34;62.41;-20078.75;5033847;28;20313;-60
2022/04/16 08:19:01;;;;;;;7.77;2.60;;;8.70;99.90;;;10.20;63.03;-20074.13;5033648;28;20226;-60
2022/04/16 08:21:31;;;;;;;4.00;2.00;;;8.80;99.90;;;9.77;62.79;-20059.44;5034070;28;20292;-62
2022/04/16 08:24:12;;;;;;;2.27;2.07;;;8.70;99.90;;;8.86;66.10;-20028.50;5034622;28;20213;-63
2022/04/16 08:26:42;;;;;;;3.17;2.00;;;8.20;99.90;;;8.37;69.35;-20011.94;5034105;28;20670;-63
2022/04/16 08:29:10;;;;;;;3.60;2.40;;;7.70;99.90;;;8.26;70.01;-20008.00;5033934;28;20233;-63
2022/04/16 08:31:38;;;;;;;4.63;1.90;;;7.40;99.90;;;8.32;69.97;-20010.06;5033851;28;20333;-62
2022/04/16 08:34:26;;;;;;;3.20;2.00;;;7.40;99.90;;;8.03;71.59;-20000.16;5033639;28;20234;-60
2022/04/16 08:36:55;;;;;;;2.00;1.80;;;7.20;99.90;;;8.11;71.50;-20003.06;5027543;28;20633;-59
2022/04/16 08:39:23;;;;;;;3.73;2.13;;;7.20;99.90;;;8.12;69.32;-20003.22;5014477;28;20209;-59
2022/04/16 08:41:56;;;;;;;2.03;1.80;;;7.10;99.90;;;7.73;71.23;-19990.06;5014952;28;20233;-60
2022/04/16 08:44:27;;;;;;;2.80;1.90;;;6.90;99.90;;;7.54;71.87;-19983.41;5013644;28;20232;-61
2022/04/16 08:46:55;;;;;;;2.10;1.60;;;6.80;99.90;;;7.42;73.71;-19979.63;5024102;28;20325;-60
2022/04/16 08:49:26;;;;;;;2.10;1.90;;;6.60;99.90;;;7.38;73.56;-19978.28;5032648;28;20298;-60
2022/04/16 08:51:56;;;;;;;2.00;1.80;;;6.60;99.90;;;7.67;71.29;-19988.00;5033242;28;20333;-60
2022/04/16 08:54:25;;;;;;;1.90;1.70;;;6.70;99.90;;;7.65;71.56;-19987.16;5033612;28;20201;-60
2022/04/16 08:56:54;;;;;;;2.97;2.23;;;6.70;99.90;;;7.77;71.87;-19991.25;5023803;28;20640;-61
2022/04/16 08:59:22;;;;;;;1.90;1.67;;;6.80;99.90;;;7.84;71.65;-19993.81;5013366;28;20773;-60
2022/04/16 09:01:51;;;;;;;1.80;1.70;;;6.90;99.90;;;7.88;71.59;-19995.19;5012194;28;20237;-60
2022/04/16 09:04:21;;;;;;;2.60;1.63;;;6.90;99.90;;;8.18;68.81;-20005.28;5014517;28;20222;-59
2022/04/16 09:06:57;;;;;;;2.50;1.53;;;7.00;99.90;;;8.19;67.79;-20005.78;5013351;28;20226;-62
2022/04/16 09:09:26;;;;;;;1.73;1.40;;;7.10;99.90;;;8.25;66.24;-20007.66;5013359;28;20195;-61
2022/04/16 09:11:56;;;;;;;1.60;1.50;;;7.20;99.90;;;8.32;65.41;-20010.06;5013539;28;20246;-60
2022/04/16 09:14:34;;;;;;;1.97;1.60;;;7.20;99.90;;;8.21;64.48;-20006.28;5013361;28;20254;-60
2022/04/16 09:17:08;;;;;;;3.37;1.60;;;7.30;99.90;;;8.07;65.48;-20001.50;5024832;28;20713;-61
2022/04/16 09:19:36;;;;;;;3.17;2.00;;;7.20;99.90;;;7.70;67.87;-19988.88;5032290;28;20232;-59
2022/04/16 09:22:05;;;;;;;1.90;1.50;;;7.00;99.90;;;7.77;67.28;-19991.25;5032753;28;20237;-60
2022/04/16 09:24:46;;;;;;;3.43;1.70;;;6.90;99.90;;;7.92;66.67;-19996.56;5032717;28;20353;-60
2022/04/16 09:27:16;;;;;;;1.77;1.47;;;6.90;99.90;;;8.42;65.68;-20013.47;5032369;28;20626;-60
2022/04/16 09:29:44;;;;;;;2.57;1.67;;;7.20;99.90;;;8.97;63.88;-20032.09;5032970;28;20690;-59
2022/04/16 09:32:23;;;;;;;1.93;1.40;;;7.50;99.90;;;9.78;61.09;-20059.78;5032626;28;20757;-60
2022/04/16 09:34:52;;;;;;;1.77;1.47;;;8.10;99.90;;;10.10;58.82;-20070.53;5031965;28;20260;-60
2022/04/16 09:37:24;;;;;;;2.37;1.63;;;8.40;99.90;;;10.55;58.21;-20085.91;5032415;28;20226;-59
2022/04/16 09:39:52;;;;;;;1.70;1.50;;;8.80;99.90;;;11.07;57.32;-20103.84;5032463;28;20690;-60
2022/04/16 09:42:28;;;;;;;2.47;1.60;;;9.20;99.90;;;11.20;56.02;-20108.13;5032524;28;20317;-60
2022/04/16 09:44:57;;;;;;;2.53;1.60;;;9.50;99.90;;;11.13;55.21;-20105.72;5033114;28;20233;-59
2022/04/16 09:47:26;;;;;;;1.40;1.30;;;9.60;99.90;;;10.99;55.56;-20100.94;5031863;28;20229;-59
2022/04/16 09:49:55;;;;;;;1.70;1.43;;;9.60;99.90;;;11.04;55.56;-20102.66;5032142;28;20230;-60
2022/04/16 09:52:25;;;;;;;2.80;1.70;;;9.70;99.90;;;10.81;57.07;-20094.97;5032117;28;20221;-59
2022/04/16 09:54:57;;;;;;;2.53;1.70;;;9.60;99.90;;;10.72;56.41;-20091.88;5031812;28;20226;-59
2022/04/16 09:57:31;;;;;;;2.40;1.77;;;9.50;99.90;;;10.04;58.23;-20068.66;5018318;28;20685;-60
2022/04/16 10:00:05;;;;;;;1.80;1.70;;;9.20;99.90;;;9.79;59.62;-20060.13;5012768;28;20187;-60
2022/04/16 10:02:35;;;;;;;2.77;1.77;;;8.90;99.90;;;9.71;60.35;-20057.38;5011825;28;20233;-60
2022/04/16 10:05:04;;;;;;;2.43;1.90;;;8.80;99.90;;;9.49;61.59;-20049.88;5012070;28;20230;-59
2022/04/16 10:07:34;;;;;;;1.93;1.77;;;8.60;99.90;;;9.18;61.52;-20039.28;5012067;28;20248;-59
2022/04/16 10:10:06;;;;;;;2.60;1.90;;;8.30;99.90;;;8.99;62.27;-20032.78;5018955;28;20222;-60
2022/04/16 10:15:25;;;;;;;2.03;1.93;;;7.90;99.90;;;9.01;63.59;-20033.63;5030992;28;20214;-59
2022/04/16 10:17:54;;;;;;;2.90;2.40;;;8.00;99.90;;;8.99;63.76;-20032.97;5032033;28;20202;-59
2022/04/16 10:20:23;;;;;;;3.07;1.87;;;7.90;99.90;;;9.23;61.08;-20041.16;5031543;28;20236;-60
2022/04/16 10:22:55;;;;;;;1.73;1.63;;;8.00;99.90;;;9.42;60.12;-20047.66;5011712;28;20651;-61
2022/04/16 10:25:34;;;;;;;2.10;1.90;;;8.30;99.90;;;9.66;60.80;-20055.84;5011545;28;20744;-62
2022/04/16 10:28:09;;;;;;;2.50;2.10;;;8.50;99.90;;;9.88;60.00;-20063.03;5011947;28;20257;-60
2022/04/16 10:30:39;;;;;;;1.60;1.47;;;8.70;99.90;;;10.03;56.98;-20068.16;5027526;28;20244;-61
2022/04/16 10:33:19;;;;;;;2.23;1.80;;;8.80;99.90;;;10.41;57.85;-20081.31;5031864;28;20193;-60
2022/04/16 10:35:52;;;;;;;1.70;1.60;;;9.10;99.90;;;10.10;58.54;-20070.53;5031706;28;20220;-60
2022/04/16 10:38:25;;;;;;;2.60;1.70;;;9.10;99.90;;;10.41;57.85;-20081.13;5031327;28;20237;-60
2022/04/16 10:40:57;;;;;;;2.17;1.80;;;9.20;99.90;;;10.53;58.25;-20085.41;5031245;28;20225;-60
2022/04/16 10:43:33;;;;;;;2.17;1.50;;;9.30;99.90;;;10.53;57.76;-20085.22;5030063;28;20332;-60
2022/04/16 10:46:05;;;;;;;4.47;1.80;;;9.20;99.90;;;10.76;58.89;-20093.09;5031441;28;20227;-61